sensor_id;sensor_type;location;lat;lon;timestamp;P1;durP1;ratioP1;P2;durP2;ratioP2
12593;SDS011;6362;50.208;9.182;2023-04-03T00:01:19;3.13;;;1.88;;
12593;SDS011;6362;50.208;9.182;2023-04-03T00:03:45;2.38;;;1.98;;
12593;SDS011;6362;50.208;9.182;2023-04-03T00:06:11;2.33;;;1.52;;
12593;SDS011;6362;50.208;9.182;2023-04-03T00:08:37;3.92;;;1.92;;
12593;SDS011;6362;50.208;9.182;2023-04-03T00:11:04;2.28;;;1.58;;
12593;SDS011;6362;50.208;9.182;2023-04-03T00:13:30;1.88;;;1.33;;
12593;SDS011;6362;50.208;9.182;2023-04-03T00:15:56;4.35;;;1.90;;
12593;SDS011;6362;50.208;9.182;2023-04-03T00:18:22;3.58;;;1.63;;
12593;SDS011;6362;50.208;9.182;2023-04-03T00:20:48;3.00;;;1.70;;
12593;SDS011;6362;50.208;9.182;2023-04-03T00:23:14;4.10;;;1.70;;
12593;SDS011;6362;50.208;9.182;2023-04-03T00:25:39;4.13;;;1.67;;
12593;SDS011;6362;50.208;9.182;2023-04-03T00:28:05;3.47;;;2.13;;
12593;SDS011;6362;50.208;9.182;2023-04-03T00:30:31;4.22;;;2.67;;
12593;SDS011;6362;50.208;9.182;2023-04-03T00:32:57;5.13;;;2.22;;
12593;SDS011;6362;50.208;9.182;2023-04-03T00:35:23;3.97;;;1.80;;
12593;SDS011;6362;50.208;9.182;2023-04-03T00:37:52;3.92;;;1.67;;
12593;SDS011;6362;50.208;9.182;2023-04-03T00:40:18;4.13;;;1.63;;
12593;SDS011;6362;50.208;9.182;2023-04-03T00:42:46;5.05;;;1.90;;
12593;SDS011;6362;50.208;9.182;2023-04-03T00:47:38;4.32;;;1.45;;
12593;SDS011;6362;50.208;9.182;2023-04-03T00:50:06;2.72;;;1.50;;
12593;SDS011;6362;50.208;9.182;2023-04-03T00:52:32;2.30;;;1.60;;
12593;SDS011;6362;50.208;9.182;2023-04-03T00:54:58;2.35;;;1.48;;
12593;SDS011;6362;50.208;9.182;2023-04-03T00:57:27;1.95;;;1.67;;
12593;SDS011;6362;50.208;9.182;2023-04-03T00:59:58;6.32;;;2.47;;
12593;SDS011;6362;50.208;9.182;2023-04-03T01:02:28;2.50;;;1.92;;
12593;SDS011;6362;50.208;9.182;2023-04-03T01:04:53;3.10;;;1.70;;
12593;SDS011;6362;50.208;9.182;2023-04-03T01:07:23;3.80;;;1.60;;
12593;SDS011;6362;50.208;9.182;2023-04-03T01:09:56;2.17;;;1.40;;
12593;SDS011;6362;50.208;9.182;2023-04-03T01:14:50;3.17;;;1.70;;
12593;SDS011;6362;50.208;9.182;2023-04-03T01:25:42;4.18;;;1.38;;
12593;SDS011;6362;50.208;9.182;2023-04-03T01:28:18;4.32;;;1.67;;
12593;SDS011;6362;50.208;9.182;2023-04-03T01:33:51;2.83;;;2.30;;
12593;SDS011;6362;50.208;9.182;2023-04-03T01:36:18;2.13;;;1.60;;
12593;SDS011;6362;50.208;9.182;2023-04-03T01:38:52;2.13;;;1.48;;
12593;SDS011;6362;50.208;9.182;2023-04-03T01:41:18;4.15;;;1.65;;
12593;SDS011;6362;50.208;9.182;2023-04-03T01:43:46;2.47;;;1.55;;
12593;SDS011;6362;50.208;9.182;2023-04-03T01:46:11;1.73;;;1.23;;
12593;SDS011;6362;50.208;9.182;2023-04-03T01:48:37;3.67;;;1.30;;
12593;SDS011;6362;50.208;9.182;2023-04-03T01:51:03;2.08;;;1.30;;
12593;SDS011;6362;50.208;9.182;2023-04-03T01:53:28;7.00;;;1.70;;
12593;SDS011;6362;50.208;9.182;2023-04-03T01:55:53;4.00;;;1.35;;
12593;SDS011;6362;50.208;9.182;2023-04-03T01:58:19;3.20;;;1.80;;
12593;SDS011;6362;50.208;9.182;2023-04-03T02:00:44;3.80;;;1.52;;
12593;SDS011;6362;50.208;9.182;2023-04-03T02:03:10;4.82;;;1.50;;
12593;SDS011;6362;50.208;9.182;2023-04-03T02:05:36;2.83;;;1.10;;
12593;SDS011;6362;50.208;9.182;2023-04-03T02:08:01;2.33;;;1.52;;
12593;SDS011;6362;50.208;9.182;2023-04-03T02:10:27;4.78;;;1.20;;
12593;SDS011;6362;50.208;9.182;2023-04-03T02:12:52;4.07;;;1.30;;
12593;SDS011;6362;50.208;9.182;2023-04-03T02:15:18;2.92;;;1.33;;
12593;SDS011;6362;50.208;9.182;2023-04-03T02:17:43;3.53;;;0.93;;
12593;SDS011;6362;50.208;9.182;2023-04-03T02:20:09;3.78;;;1.25;;
12593;SDS011;6362;50.208;9.182;2023-04-03T02:22:35;7.47;;;1.70;;
12593;SDS011;6362;50.208;9.182;2023-04-03T02:25:01;6.15;;;1.98;;
12593;SDS011;6362;50.208;9.182;2023-04-03T02:27:27;5.75;;;1.23;;
12593;SDS011;6362;50.208;9.182;2023-04-03T02:29:52;2.58;;;1.40;;
12593;SDS011;6362;50.208;9.182;2023-04-03T02:32:18;3.90;;;1.00;;
12593;SDS011;6362;50.208;9.182;2023-04-03T02:34:43;4.10;;;0.90;;
12593;SDS011;6362;50.208;9.182;2023-04-03T02:37:09;3.47;;;1.02;;
12593;SDS011;6362;50.208;9.182;2023-04-03T02:39:34;2.08;;;0.98;;
12593;SDS011;6362;50.208;9.182;2023-04-03T02:42:00;2.47;;;1.27;;
12593;SDS011;6362;50.208;9.182;2023-04-03T02:44:25;4.80;;;1.63;;
12593;SDS011;6362;50.208;9.182;2023-04-03T02:46:51;5.00;;;1.65;;
12593;SDS011;6362;50.208;9.182;2023-04-03T02:49:16;3.42;;;1.10;;
12593;SDS011;6362;50.208;9.182;2023-04-03T02:51:42;3.85;;;1.17;;
12593;SDS011;6362;50.208;9.182;2023-04-03T02:54:07;3.35;;;1.08;;
12593;SDS011;6362;50.208;9.182;2023-04-03T02:56:33;3.95;;;1.45;;
12593;SDS011;6362;50.208;9.182;2023-04-03T02:58:59;2.28;;;1.10;;
12593;SDS011;6362;50.208;9.182;2023-04-03T03:01:24;4.30;;;1.17;;
12593;SDS011;6362;50.208;9.182;2023-04-03T03:03:53;1.45;;;0.90;;
12593;SDS011;6362;50.208;9.182;2023-04-03T03:06:19;3.15;;;1.00;;
12593;SDS011;6362;50.208;9.182;2023-04-03T03:08:44;2.75;;;1.15;;
12593;SDS011;6362;50.208;9.182;2023-04-03T03:11:10;1.73;;;0.90;;
12593;SDS011;6362;50.208;9.182;2023-04-03T03:13:35;2.25;;;1.30;;
12593;SDS011;6362;50.208;9.182;2023-04-03T03:16:01;5.93;;;1.40;;
12593;SDS011;6362;50.208;9.182;2023-04-03T03:18:27;6.70;;;1.55;;
12593;SDS011;6362;50.208;9.182;2023-04-03T03:20:53;4.20;;;1.10;;
12593;SDS011;6362;50.208;9.182;2023-04-03T03:23:20;2.97;;;1.05;;
12593;SDS011;6362;50.208;9.182;2023-04-03T03:25:47;2.95;;;1.77;;
12593;SDS011;6362;50.208;9.182;2023-04-03T03:28:12;3.90;;;1.80;;
12593;SDS011;6362;50.208;9.182;2023-04-03T03:30:38;1.70;;;1.42;;
12593;SDS011;6362;50.208;9.182;2023-04-03T03:33:03;2.40;;;1.05;;
12593;SDS011;6362;50.208;9.182;2023-04-03T03:35:29;7.60;;;1.50;;
12593;SDS011;6362;50.208;9.182;2023-04-03T03:37:54;3.30;;;1.60;;
12593;SDS011;6362;50.208;9.182;2023-04-03T03:40:20;5.30;;;2.00;;
12593;SDS011;6362;50.208;9.182;2023-04-03T03:42:46;6.10;;;1.48;;
12593;SDS011;6362;50.208;9.182;2023-04-03T03:45:11;4.30;;;1.20;;
12593;SDS011;6362;50.208;9.182;2023-04-03T03:47:36;6.00;;;1.67;;
12593;SDS011;6362;50.208;9.182;2023-04-03T03:50:02;4.88;;;1.20;;
12593;SDS011;6362;50.208;9.182;2023-04-03T03:52:28;2.83;;;1.40;;
12593;SDS011;6362;50.208;9.182;2023-04-03T03:54:55;3.63;;;1.35;;
12593;SDS011;6362;50.208;9.182;2023-04-03T03:57:21;4.03;;;1.23;;
12593;SDS011;6362;50.208;9.182;2023-04-03T03:59:46;4.03;;;1.60;;
12593;SDS011;6362;50.208;9.182;2023-04-03T04:02:13;4.70;;;1.58;;
12593;SDS011;6362;50.208;9.182;2023-04-03T04:04:39;6.30;;;1.50;;
12593;SDS011;6362;50.208;9.182;2023-04-03T04:07:04;2.63;;;1.17;;
12593;SDS011;6362;50.208;9.182;2023-04-03T04:09:29;3.33;;;1.38;;
12593;SDS011;6362;50.208;9.182;2023-04-03T04:11:55;3.03;;;1.40;;
12593;SDS011;6362;50.208;9.182;2023-04-03T04:14:20;3.42;;;1.50;;
12593;SDS011;6362;50.208;9.182;2023-04-03T04:16:47;2.85;;;1.20;;
12593;SDS011;6362;50.208;9.182;2023-04-03T04:19:12;5.80;;;1.38;;
12593;SDS011;6362;50.208;9.182;2023-04-03T04:21:38;4.78;;;1.42;;
12593;SDS011;6362;50.208;9.182;2023-04-03T04:24:04;6.30;;;1.70;;
12593;SDS011;6362;50.208;9.182;2023-04-03T04:26:30;3.97;;;1.30;;
12593;SDS011;6362;50.208;9.182;2023-04-03T04:28:56;3.40;;;1.05;;
12593;SDS011;6362;50.208;9.182;2023-04-03T04:31:21;5.93;;;1.42;;
12593;SDS011;6362;50.208;9.182;2023-04-03T04:33:47;4.68;;;1.23;;
12593;SDS011;6362;50.208;9.182;2023-04-03T04:36:12;5.35;;;1.63;;
12593;SDS011;6362;50.208;9.182;2023-04-03T04:38:39;4.65;;;1.20;;
12593;SDS011;6362;50.208;9.182;2023-04-03T04:41:05;3.60;;;1.40;;
12593;SDS011;6362;50.208;9.182;2023-04-03T04:43:30;5.55;;;2.38;;
12593;SDS011;6362;50.208;9.182;2023-04-03T04:46:08;3.65;;;1.33;;
12593;SDS011;6362;50.208;9.182;2023-04-03T04:48:37;6.70;;;1.75;;
12593;SDS011;6362;50.208;9.182;2023-04-03T04:51:03;4.50;;;1.27;;
12593;SDS011;6362;50.208;9.182;2023-04-03T04:53:29;4.53;;;1.77;;
12593;SDS011;6362;50.208;9.182;2023-04-03T04:55:54;6.78;;;2.47;;
12593;SDS011;6362;50.208;9.182;2023-04-03T04:58:20;4.38;;;1.98;;
12593;SDS011;6362;50.208;9.182;2023-04-03T05:00:45;3.78;;;1.55;;
12593;SDS011;6362;50.208;9.182;2023-04-03T05:03:11;4.45;;;1.65;;
12593;SDS011;6362;50.208;9.182;2023-04-03T05:05:36;3.88;;;1.17;;
12593;SDS011;6362;50.208;9.182;2023-04-03T05:08:02;6.00;;;2.38;;
12593;SDS011;6362;50.208;9.182;2023-04-03T05:10:28;3.90;;;1.70;;
12593;SDS011;6362;50.208;9.182;2023-04-03T05:12:54;4.25;;;1.88;;
12593;SDS011;6362;50.208;9.182;2023-04-03T05:15:19;5.55;;;1.75;;
12593;SDS011;6362;50.208;9.182;2023-04-03T05:17:45;4.07;;;1.60;;
12593;SDS011;6362;50.208;9.182;2023-04-03T05:20:11;4.40;;;1.73;;
12593;SDS011;6362;50.208;9.182;2023-04-03T05:22:36;7.15;;;1.50;;
12593;SDS011;6362;50.208;9.182;2023-04-03T05:25:02;6.50;;;2.00;;
12593;SDS011;6362;50.208;9.182;2023-04-03T05:27:27;4.13;;;1.63;;
12593;SDS011;6362;50.208;9.182;2023-04-03T05:29:53;4.63;;;1.70;;
12593;SDS011;6362;50.208;9.182;2023-04-03T05:32:19;2.67;;;1.58;;
12593;SDS011;6362;50.208;9.182;2023-04-03T05:34:45;6.50;;;1.83;;
12593;SDS011;6362;50.208;9.182;2023-04-03T05:37:11;4.55;;;1.60;;
12593;SDS011;6362;50.208;9.182;2023-04-03T05:39:36;5.95;;;1.35;;
12593;SDS011;6362;50.208;9.182;2023-04-03T05:42:03;4.97;;;1.60;;
12593;SDS011;6362;50.208;9.182;2023-04-03T05:44:28;3.47;;;1.67;;
12593;SDS011;6362;50.208;9.182;2023-04-03T05:46:54;3.72;;;1.85;;
12593;SDS011;6362;50.208;9.182;2023-04-03T05:49:20;5.30;;;1.70;;
12593;SDS011;6362;50.208;9.182;2023-04-03T05:51:45;4.57;;;1.55;;
12593;SDS011;6362;50.208;9.182;2023-04-03T05:54:18;7.07;;;1.95;;
12593;SDS011;6362;50.208;9.182;2023-04-03T05:56:48;9.82;;;1.52;;
12593;SDS011;6362;50.208;9.182;2023-04-03T05:59:14;6.82;;;1.80;;
12593;SDS011;6362;50.208;9.182;2023-04-03T06:01:40;3.53;;;1.83;;
12593;SDS011;6362;50.208;9.182;2023-04-03T06:04:06;3.75;;;2.05;;
12593;SDS011;6362;50.208;9.182;2023-04-03T06:06:46;6.13;;;1.80;;
12593;SDS011;6362;50.208;9.182;2023-04-03T06:09:15;3.90;;;2.05;;
12593;SDS011;6362;50.208;9.182;2023-04-03T06:11:41;3.70;;;2.00;;
12593;SDS011;6362;50.208;9.182;2023-04-03T06:14:07;6.53;;;1.95;;
12593;SDS011;6362;50.208;9.182;2023-04-03T06:16:36;5.15;;;2.00;;
12593;SDS011;6362;50.208;9.182;2023-04-03T06:19:03;4.15;;;1.88;;
12593;SDS011;6362;50.208;9.182;2023-04-03T06:21:29;4.50;;;2.17;;
12593;SDS011;6362;50.208;9.182;2023-04-03T06:23:55;7.50;;;2.00;;
12593;SDS011;6362;50.208;9.182;2023-04-03T06:26:20;2.42;;;1.88;;
12593;SDS011;6362;50.208;9.182;2023-04-03T06:28:47;3.83;;;2.10;;
12593;SDS011;6362;50.208;9.182;2023-04-03T06:31:19;9.05;;;2.55;;
12593;SDS011;6362;50.208;9.182;2023-04-03T06:33:45;2.85;;;1.70;;
12593;SDS011;6362;50.208;9.182;2023-04-03T06:36:10;6.25;;;1.70;;
12593;SDS011;6362;50.208;9.182;2023-04-03T06:38:37;7.20;;;1.90;;
12593;SDS011;6362;50.208;9.182;2023-04-03T06:41:02;5.97;;;1.88;;
12593;SDS011;6362;50.208;9.182;2023-04-03T06:43:28;6.45;;;1.77;;
12593;SDS011;6362;50.208;9.182;2023-04-03T06:45:53;5.68;;;1.88;;
12593;SDS011;6362;50.208;9.182;2023-04-03T06:48:19;4.13;;;1.70;;
12593;SDS011;6362;50.208;9.182;2023-04-03T06:50:45;7.25;;;2.20;;
12593;SDS011;6362;50.208;9.182;2023-04-03T06:53:11;5.82;;;2.10;;
12593;SDS011;6362;50.208;9.182;2023-04-03T06:55:37;4.95;;;1.92;;
12593;SDS011;6362;50.208;9.182;2023-04-03T06:58:03;4.65;;;1.52;;
12593;SDS011;6362;50.208;9.182;2023-04-03T07:00:29;3.45;;;1.40;;
12593;SDS011;6362;50.208;9.182;2023-04-03T07:02:55;4.82;;;1.27;;
12593;SDS011;6362;50.208;9.182;2023-04-03T07:05:22;6.05;;;1.63;;
12593;SDS011;6362;50.208;9.182;2023-04-03T07:07:48;5.68;;;2.40;;
12593;SDS011;6362;50.208;9.182;2023-04-03T07:10:15;4.38;;;1.90;;
12593;SDS011;6362;50.208;9.182;2023-04-03T07:12:41;5.82;;;2.22;;
12593;SDS011;6362;50.208;9.182;2023-04-03T07:15:06;6.53;;;2.35;;
12593;SDS011;6362;50.208;9.182;2023-04-03T07:17:33;6.55;;;2.03;;
12593;SDS011;6362;50.208;9.182;2023-04-03T07:19:58;4.47;;;1.80;;
12593;SDS011;6362;50.208;9.182;2023-04-03T07:22:24;4.20;;;2.20;;
12593;SDS011;6362;50.208;9.182;2023-04-03T07:24:50;3.35;;;2.10;;
12593;SDS011;6362;50.208;9.182;2023-04-03T07:27:15;4.47;;;1.80;;
12593;SDS011;6362;50.208;9.182;2023-04-03T07:29:42;4.57;;;2.45;;
12593;SDS011;6362;50.208;9.182;2023-04-03T07:32:09;5.97;;;1.90;;
12593;SDS011;6362;50.208;9.182;2023-04-03T07:34:35;3.67;;;1.48;;
12593;SDS011;6362;50.208;9.182;2023-04-03T07:37:01;2.75;;;1.50;;
12593;SDS011;6362;50.208;9.182;2023-04-03T07:39:27;4.22;;;1.70;;
12593;SDS011;6362;50.208;9.182;2023-04-03T07:41:53;4.70;;;1.98;;
12593;SDS011;6362;50.208;9.182;2023-04-03T07:44:21;4.65;;;1.63;;
12593;SDS011;6362;50.208;9.182;2023-04-03T07:46:46;3.72;;;1.60;;
12593;SDS011;6362;50.208;9.182;2023-04-03T07:49:13;4.15;;;1.50;;
12593;SDS011;6362;50.208;9.182;2023-04-03T07:51:39;3.95;;;1.40;;
12593;SDS011;6362;50.208;9.182;2023-04-03T07:54:04;6.47;;;1.88;;
12593;SDS011;6362;50.208;9.182;2023-04-03T07:56:30;3.17;;;1.50;;
12593;SDS011;6362;50.208;9.182;2023-04-03T07:58:56;5.95;;;2.20;;
12593;SDS011;6362;50.208;9.182;2023-04-03T08:01:22;1.95;;;1.33;;
12593;SDS011;6362;50.208;9.182;2023-04-03T08:03:47;3.65;;;1.50;;
12593;SDS011;6362;50.208;9.182;2023-04-03T08:06:13;7.05;;;1.67;;
12593;SDS011;6362;50.208;9.182;2023-04-03T08:08:40;5.20;;;1.40;;
12593;SDS011;6362;50.208;9.182;2023-04-03T08:11:06;2.88;;;1.20;;
12593;SDS011;6362;50.208;9.182;2023-04-03T08:13:33;5.25;;;1.42;;
12593;SDS011;6362;50.208;9.182;2023-04-03T08:16:06;4.35;;;1.65;;
12593;SDS011;6362;50.208;9.182;2023-04-03T08:18:36;3.63;;;1.42;;
12593;SDS011;6362;50.208;9.182;2023-04-03T08:21:04;4.53;;;1.92;;
12593;SDS011;6362;50.208;9.182;2023-04-03T08:23:30;4.45;;;1.60;;
12593;SDS011;6362;50.208;9.182;2023-04-03T08:25:56;5.70;;;1.67;;
12593;SDS011;6362;50.208;9.182;2023-04-03T08:28:21;4.30;;;1.50;;
12593;SDS011;6362;50.208;9.182;2023-04-03T08:30:47;3.10;;;1.15;;
12593;SDS011;6362;50.208;9.182;2023-04-03T08:33:12;4.63;;;1.58;;
12593;SDS011;6362;50.208;9.182;2023-04-03T08:35:38;4.05;;;1.60;;
12593;SDS011;6362;50.208;9.182;2023-04-03T08:38:05;3.42;;;1.42;;
12593;SDS011;6362;50.208;9.182;2023-04-03T08:40:31;5.38;;;1.65;;
12593;SDS011;6362;50.208;9.182;2023-04-03T08:45:34;7.43;;;1.20;;
12593;SDS011;6362;50.208;9.182;2023-04-03T08:50:48;3.10;;;1.40;;
12593;SDS011;6362;50.208;9.182;2023-04-03T08:53:19;3.85;;;1.50;;
12593;SDS011;6362;50.208;9.182;2023-04-03T08:55:49;3.95;;;1.80;;
12593;SDS011;6362;50.208;9.182;2023-04-03T08:58:16;3.17;;;2.10;;
12593;SDS011;6362;50.208;9.182;2023-04-03T09:01:45;3.15;;;1.67;;
12593;SDS011;6362;50.208;9.182;2023-04-03T09:03:52;4.38;;;1.42;;
12593;SDS011;6362;50.208;9.182;2023-04-03T09:06:29;3.00;;;1.40;;
12593;SDS011;6362;50.208;9.182;2023-04-03T09:22:28;1.92;;;1.17;;
12593;SDS011;6362;50.208;9.182;2023-04-03T09:25:05;5.50;;;1.60;;
12593;SDS011;6362;50.208;9.182;2023-04-03T09:27:38;2.70;;;1.58;;
12593;SDS011;6362;50.208;9.182;2023-04-03T09:30:04;3.08;;;1.33;;
12593;SDS011;6362;50.208;9.182;2023-04-03T09:32:35;4.95;;;1.55;;
12593;SDS011;6362;50.208;9.182;2023-04-03T09:35:03;4.60;;;1.83;;
12593;SDS011;6362;50.208;9.182;2023-04-03T09:37:37;3.28;;;1.48;;
12593;SDS011;6362;50.208;9.182;2023-04-03T09:42:53;6.93;;;1.75;;
12593;SDS011;6362;50.208;9.182;2023-04-03T09:45:25;3.88;;;2.13;;
12593;SDS011;6362;50.208;9.182;2023-04-03T09:48:19;2.75;;;1.52;;
12593;SDS011;6362;50.208;9.182;2023-04-03T09:53:51;3.53;;;1.60;;
12593;SDS011;6362;50.208;9.182;2023-04-03T09:58:45;4.03;;;1.33;;
12593;SDS011;6362;50.208;9.182;2023-04-03T10:06:38;3.05;;;1.73;;
12593;SDS011;6362;50.208;9.182;2023-04-03T10:09:28;4.20;;;1.40;;
12593;SDS011;6362;50.208;9.182;2023-04-03T10:12:07;3.25;;;1.10;;
12593;SDS011;6362;50.208;9.182;2023-04-03T10:14:59;4.90;;;1.40;;
12593;SDS011;6362;50.208;9.182;2023-04-03T10:21:14;2.75;;;1.30;;
12593;SDS011;6362;50.208;9.182;2023-04-03T10:23:22;2.75;;;1.50;;
12593;SDS011;6362;50.208;9.182;2023-04-03T10:28:45;2.90;;;1.63;;
12593;SDS011;6362;50.208;9.182;2023-04-03T10:31:23;3.90;;;1.70;;
12593;SDS011;6362;50.208;9.182;2023-04-03T10:34:15;2.00;;;1.30;;
12593;SDS011;6362;50.208;9.182;2023-04-03T10:42:34;3.83;;;1.38;;
12593;SDS011;6362;50.208;9.182;2023-04-03T10:53:31;4.18;;;1.48;;
12593;SDS011;6362;50.208;9.182;2023-04-03T10:58:56;3.20;;;1.27;;
12593;SDS011;6362;50.208;9.182;2023-04-03T11:01:33;3.13;;;1.50;;
12593;SDS011;6362;50.208;9.182;2023-04-03T11:04:04;2.50;;;1.17;;
12593;SDS011;6362;50.208;9.182;2023-04-03T11:06:32;1.90;;;0.88;;
12593;SDS011;6362;50.208;9.182;2023-04-03T11:09:05;3.78;;;1.13;;
12593;SDS011;6362;50.208;9.182;2023-04-03T11:11:40;2.03;;;1.20;;
12593;SDS011;6362;50.208;9.182;2023-04-03T11:14:17;2.00;;;1.30;;
12593;SDS011;6362;50.208;9.182;2023-04-03T11:16:53;3.03;;;1.20;;
12593;SDS011;6362;50.208;9.182;2023-04-03T11:22:42;2.75;;;1.23;;
12593;SDS011;6362;50.208;9.182;2023-04-03T11:27:43;1.98;;;1.13;;
12593;SDS011;6362;50.208;9.182;2023-04-03T11:30:17;3.50;;;1.50;;
12593;SDS011;6362;50.208;9.182;2023-04-03T11:35:35;3.08;;;1.08;;
12593;SDS011;6362;50.208;9.182;2023-04-03T11:38:02;3.75;;;1.27;;
12593;SDS011;6362;50.208;9.182;2023-04-03T11:40:32;3.90;;;1.23;;
12593;SDS011;6362;50.208;9.182;2023-04-03T11:47:57;3.72;;;1.05;;
12593;SDS011;6362;50.208;9.182;2023-04-03T11:58:02;1.65;;;1.02;;
12593;SDS011;6362;50.208;9.182;2023-04-03T12:14:01;3.80;;;1.35;;
12593;SDS011;6362;50.208;9.182;2023-04-03T12:19:27;3.40;;;1.30;;
12593;SDS011;6362;50.208;9.182;2023-04-03T12:24:34;6.30;;;1.90;;
12593;SDS011;6362;50.208;9.182;2023-04-03T12:27:02;6.97;;;1.80;;
12593;SDS011;6362;50.208;9.182;2023-04-03T12:29:43;2.28;;;1.40;;
12593;SDS011;6362;50.208;9.182;2023-04-03T12:32:31;5.75;;;1.98;;
12593;SDS011;6362;50.208;9.182;2023-04-03T12:35:18;3.42;;;1.58;;
12593;SDS011;6362;50.208;9.182;2023-04-03T12:43:24;3.90;;;2.13;;
12593;SDS011;6362;50.208;9.182;2023-04-03T12:48:38;4.88;;;2.30;;
12593;SDS011;6362;50.208;9.182;2023-04-03T12:51:52;4.97;;;2.20;;
12593;SDS011;6362;50.208;9.182;2023-04-03T12:54:10;4.70;;;1.92;;
12593;SDS011;6362;50.208;9.182;2023-04-03T12:56:38;5.13;;;2.28;;
12593;SDS011;6362;50.208;9.182;2023-04-03T12:59:18;3.47;;;1.80;;
12593;SDS011;6362;50.208;9.182;2023-04-03T13:01:44;4.70;;;1.77;;
12593;SDS011;6362;50.208;9.182;2023-04-03T13:04:18;5.82;;;2.30;;
12593;SDS011;6362;50.208;9.182;2023-04-03T13:06:44;3.97;;;2.17;;
12593;SDS011;6362;50.208;9.182;2023-04-03T13:09:21;6.45;;;2.08;;
12593;SDS011;6362;50.208;9.182;2023-04-03T13:11:49;4.70;;;2.08;;
12593;SDS011;6362;50.208;9.182;2023-04-03T13:14:18;3.55;;;1.92;;
12593;SDS011;6362;50.208;9.182;2023-04-03T13:16:53;4.32;;;1.73;;
12593;SDS011;6362;50.208;9.182;2023-04-03T13:19:28;4.65;;;1.60;;
12593;SDS011;6362;50.208;9.182;2023-04-03T13:21:58;3.08;;;1.40;;
12593;SDS011;6362;50.208;9.182;2023-04-03T13:24:28;1.70;;;1.20;;
12593;SDS011;6362;50.208;9.182;2023-04-03T13:26:55;3.97;;;1.27;;
12593;SDS011;6362;50.208;9.182;2023-04-03T13:29:23;3.55;;;1.15;;
12593;SDS011;6362;50.208;9.182;2023-04-03T13:31:53;2.08;;;0.80;;
12593;SDS011;6362;50.208;9.182;2023-04-03T13:34:21;2.47;;;1.45;;
12593;SDS011;6362;50.208;9.182;2023-04-03T13:41:47;2.53;;;1.40;;
12593;SDS011;6362;50.208;9.182;2023-04-03T13:44:36;2.65;;;1.08;;
12593;SDS011;6362;50.208;9.182;2023-04-03T13:52:26;1.42;;;0.95;;
12593;SDS011;6362;50.208;9.182;2023-04-03T13:54:52;4.72;;;1.13;;
12593;SDS011;6362;50.208;9.182;2023-04-03T13:57:21;2.17;;;1.10;;
12593;SDS011;6362;50.208;9.182;2023-04-03T13:59:47;2.90;;;1.42;;
12593;SDS011;6362;50.208;9.182;2023-04-03T14:02:28;2.08;;;1.13;;
12593;SDS011;6362;50.208;9.182;2023-04-03T14:04:57;4.35;;;1.10;;
12593;SDS011;6362;50.208;9.182;2023-04-03T14:07:26;2.03;;;0.80;;
12593;SDS011;6362;50.208;9.182;2023-04-03T14:09:53;1.98;;;0.70;;
12593;SDS011;6362;50.208;9.182;2023-04-03T14:12:26;1.52;;;0.65;;
12593;SDS011;6362;50.208;9.182;2023-04-03T14:14:54;2.05;;;0.70;;
12593;SDS011;6362;50.208;9.182;2023-04-03T14:17:22;2.35;;;0.90;;
12593;SDS011;6362;50.208;9.182;2023-04-03T14:19:49;2.83;;;1.00;;
12593;SDS011;6362;50.208;9.182;2023-04-03T14:22:20;1.35;;;0.80;;
12593;SDS011;6362;50.208;9.182;2023-04-03T14:24:47;1.63;;;1.00;;
12593;SDS011;6362;50.208;9.182;2023-04-03T14:27:21;2.10;;;0.98;;
12593;SDS011;6362;50.208;9.182;2023-04-03T14:29:49;3.38;;;1.10;;
12593;SDS011;6362;50.208;9.182;2023-04-03T14:32:16;2.67;;;0.82;;
12593;SDS011;6362;50.208;9.182;2023-04-03T14:34:43;3.85;;;0.73;;
12593;SDS011;6362;50.208;9.182;2023-04-03T14:37:10;1.52;;;0.50;;
12593;SDS011;6362;50.208;9.182;2023-04-03T14:39:41;3.30;;;0.98;;
12593;SDS011;6362;50.208;9.182;2023-04-03T14:42:11;1.65;;;0.57;;
12593;SDS011;6362;50.208;9.182;2023-04-03T14:44:39;1.23;;;0.70;;
12593;SDS011;6362;50.208;9.182;2023-04-03T14:47:08;1.95;;;0.70;;
12593;SDS011;6362;50.208;9.182;2023-04-03T14:49:35;2.08;;;0.90;;
12593;SDS011;6362;50.208;9.182;2023-04-03T14:52:01;1.70;;;0.70;;
12593;SDS011;6362;50.208;9.182;2023-04-03T14:54:26;1.95;;;0.60;;
12593;SDS011;6362;50.208;9.182;2023-04-03T14:56:54;1.10;;;0.70;;
12593;SDS011;6362;50.208;9.182;2023-04-03T14:59:24;4.75;;;1.20;;
12593;SDS011;6362;50.208;9.182;2023-04-03T15:01:51;2.47;;;0.85;;
12593;SDS011;6362;50.208;9.182;2023-04-03T15:04:22;3.35;;;0.90;;
12593;SDS011;6362;50.208;9.182;2023-04-03T15:06:48;2.33;;;0.80;;
12593;SDS011;6362;50.208;9.182;2023-04-03T15:09:21;1.00;;;0.70;;
12593;SDS011;6362;50.208;9.182;2023-04-03T15:14:15;1.95;;;0.85;;
12593;SDS011;6362;50.208;9.182;2023-04-03T15:16:41;2.42;;;1.00;;
12593;SDS011;6362;50.208;9.182;2023-04-03T15:19:06;2.38;;;0.80;;
12593;SDS011;6362;50.208;9.182;2023-04-03T15:21:32;2.63;;;0.93;;
12593;SDS011;6362;50.208;9.182;2023-04-03T15:23:57;2.15;;;0.75;;
12593;SDS011;6362;50.208;9.182;2023-04-03T15:26:22;2.90;;;0.90;;
12593;SDS011;6362;50.208;9.182;2023-04-03T15:28:48;2.92;;;0.80;;
12593;SDS011;6362;50.208;9.182;2023-04-03T15:31:14;1.55;;;0.77;;
12593;SDS011;6362;50.208;9.182;2023-04-03T15:33:42;0.98;;;0.68;;
12593;SDS011;6362;50.208;9.182;2023-04-03T15:36:08;1.50;;;0.85;;
12593;SDS011;6362;50.208;9.182;2023-04-03T15:38:33;3.00;;;0.85;;
12593;SDS011;6362;50.208;9.182;2023-04-03T15:40:59;1.90;;;0.80;;
12593;SDS011;6362;50.208;9.182;2023-04-03T15:43:25;1.92;;;0.90;;
12593;SDS011;6362;50.208;9.182;2023-04-03T15:45:51;1.30;;;0.73;;
12593;SDS011;6362;50.208;9.182;2023-04-03T15:48:19;3.58;;;1.00;;
12593;SDS011;6362;50.208;9.182;2023-04-03T15:50:44;2.35;;;1.30;;
12593;SDS011;6362;50.208;9.182;2023-04-03T15:53:10;1.00;;;0.75;;
12593;SDS011;6362;50.208;9.182;2023-04-03T15:55:36;2.08;;;1.10;;
12593;SDS011;6362;50.208;9.182;2023-04-03T15:58:03;1.98;;;1.08;;
12593;SDS011;6362;50.208;9.182;2023-04-03T16:00:29;1.52;;;0.90;;
12593;SDS011;6362;50.208;9.182;2023-04-03T16:02:58;2.40;;;0.80;;
12593;SDS011;6362;50.208;9.182;2023-04-03T16:05:28;1.80;;;0.95;;
12593;SDS011;6362;50.208;9.182;2023-04-03T16:07:54;1.50;;;0.90;;
12593;SDS011;6362;50.208;9.182;2023-04-03T16:10:20;4.07;;;1.00;;
12593;SDS011;6362;50.208;9.182;2023-04-03T16:12:46;1.13;;;0.90;;
12593;SDS011;6362;50.208;9.182;2023-04-03T16:15:12;2.10;;;0.95;;
12593;SDS011;6362;50.208;9.182;2023-04-03T16:17:37;1.58;;;1.25;;
12593;SDS011;6362;50.208;9.182;2023-04-03T16:20:06;2.97;;;1.17;;
12593;SDS011;6362;50.208;9.182;2023-04-03T16:22:32;1.95;;;0.95;;
12593;SDS011;6362;50.208;9.182;2023-04-03T16:24:58;1.73;;;0.93;;
12593;SDS011;6362;50.208;9.182;2023-04-03T16:27:24;3.03;;;1.00;;
12593;SDS011;6362;50.208;9.182;2023-04-03T16:29:55;2.40;;;0.88;;
12593;SDS011;6362;50.208;9.182;2023-04-03T16:32:22;4.95;;;1.30;;
12593;SDS011;6362;50.208;9.182;2023-04-03T16:34:48;3.75;;;1.05;;
12593;SDS011;6362;50.208;9.182;2023-04-03T16:37:14;4.80;;;1.20;;
12593;SDS011;6362;50.208;9.182;2023-04-03T16:39:41;3.10;;;1.00;;
12593;SDS011;6362;50.208;9.182;2023-04-03T16:42:07;3.63;;;1.10;;
12593;SDS011;6362;50.208;9.182;2023-04-03T16:44:34;3.03;;;0.95;;
12593;SDS011;6362;50.208;9.182;2023-04-03T16:47:00;2.10;;;1.00;;
12593;SDS011;6362;50.208;9.182;2023-04-03T16:49:25;3.58;;;1.40;;
12593;SDS011;6362;50.208;9.182;2023-04-03T16:51:55;2.08;;;1.05;;
12593;SDS011;6362;50.208;9.182;2023-04-03T16:54:20;4.47;;;2.22;;
12593;SDS011;6362;50.208;9.182;2023-04-03T16:56:46;2.30;;;1.08;;
12593;SDS011;6362;50.208;9.182;2023-04-03T16:59:11;2.58;;;1.00;;
12593;SDS011;6362;50.208;9.182;2023-04-03T17:01:36;2.15;;;1.00;;
12593;SDS011;6362;50.208;9.182;2023-04-03T17:04:02;5.78;;;1.85;;
12593;SDS011;6362;50.208;9.182;2023-04-03T17:06:27;4.47;;;1.23;;
12593;SDS011;6362;50.208;9.182;2023-04-03T17:08:53;2.75;;;1.08;;
12593;SDS011;6362;50.208;9.182;2023-04-03T17:11:18;2.50;;;0.93;;
12593;SDS011;6362;50.208;9.182;2023-04-03T17:13:45;5.10;;;1.02;;
12593;SDS011;6362;50.208;9.182;2023-04-03T17:16:11;4.88;;;2.00;;
12593;SDS011;6362;50.208;9.182;2023-04-03T17:18:39;7.35;;;3.90;;